Airfield :
LOGIN :

Register | Disclaimer

   EN    FR    IT 

 










Legend :    VFR   Marginal VFR   IFR   Intensive IFR   Very Intensive IFR
Visi :
Ceiling :
>= 8 km
>= 3000ft
5 to 8 km
1000 to 3000 ft
1500m to 5 km
500 to 1000 ft
800 to 1500m
200 to 500 ft
< 800m
< 200 ft
Symbols :   Thunderstorms  Fog  Heavy snow  Heavy precipitations  Wind > 20 kt
SIGMETs :     Misc.  Thunderstorms  Icing  Turbulence  Mountain Waves  Volcanic Ashes







- Airport Elevation : 160 ft
- IATA code : FMO


EDDG - Münster Osnabrück Int.

CURRENT METAR :
  • 200850Z 21009KT 180V240 9999 FEW008 BKN011 03/01 Q1005 BECMG BKN015

EXPIRED METARs :
  • 200820Z 21008KT 180V240 9999 FEW008 BKN011 02/01 Q1005 BECMG BKN015
  • 200750Z 21007KT 9999 FEW008 BKN011 02/01 Q1006 BECMG BKN015
  • 200720Z 21008KT 9999 BKN009 02/01 Q1006 NOSIG
  • 200650Z 22008KT 9999 BKN009 02/01 Q1006 NOSIG
  • 200620Z 21008KT 180V240 9999 BKN009 02/01 Q1006 NOSIG

TAF TAF EDDG
Valid from the 20 at 06:00 until the 21 at 06:00 UTC


200500Z 2006/2106 21007KT 9999 BKN008
TEMPO 2006/2009 4000 BR BKN011
BECMG 2009/2012 BKN020
BECMG 2013/2016 VRB02KT
TEMPO 2018/2021 RA
TEMPO 2021/2102 2500 SNRA BKN007
BECMG 2022/2024 26005KT
TEMPO 2102/2106 BKN010
No reported NOTAMs for that airfield.



MET'MAP, your aeronautical weather chart ! - Copyright ORBIFLY December 2007 - Disclaimer

ORBIFLY MET'MAP TEAM :

Programming & Development : Alexandra Zaïnal
Concept & Development : Baudouin d'Aumeries
Co-Development & Prog : Marc-Olivier Méhu
Technical & hardware support : Manuel Goepfert

Contact : metmap@orbifly.com




SOURCES & CREDITS :

   NOAA